Terminal Aerodrome Forecast
Issued by NWS

Current Version | Previous Version | Graphics & Text | Print | Product List | Glossary On
Versions: 1 2 3 4 5 6 7 8 9 10 11 12 13 14 15 16 17 18 19 20 21 22
186
FTUS41 KRLX 201522 AAA
TAFCKB
TAF AMD
KCKB 201522Z 2015/2112 24009KT P6SM SCT250
     FM201600 26011G20KT P6SM SCT060
     FM202300 22003KT P6SM SCT200
     FM211000 00000KT P6SM SCT080=

USA.gov is the U.S. government's official web portal to all federal, state and local government web resources and services.